createdAt,value
2019-03-19T00:01:53.743Z,8.70
2019-03-19T00:04:20.363Z,9.67
2019-03-19T00:06:46.907Z,9.17
2019-03-19T00:09:13.271Z,9.00
2019-03-19T00:11:39.723Z,9.23
2019-03-19T00:14:06.170Z,10.40
2019-03-19T00:16:32.564Z,10.47
2019-03-19T00:18:58.913Z,8.97
2019-03-19T00:21:25.279Z,10.17
2019-03-19T00:23:51.723Z,9.27
2019-03-19T00:26:18.191Z,9.83
2019-03-19T00:28:44.668Z,9.47
2019-03-19T00:31:11.119Z,9.13
2019-03-19T00:33:37.463Z,9.17
2019-03-19T00:36:03.935Z,8.70
2019-03-19T00:38:30.391Z,8.80
2019-03-19T00:40:56.764Z,9.63
2019-03-19T00:43:23.105Z,9.67
2019-03-19T00:45:49.571Z,9.00
2019-03-19T00:48:16.022Z,9.17
2019-03-19T00:50:42.415Z,9.77
2019-03-19T00:53:08.787Z,9.83
2019-03-19T00:55:40.562Z,9.90
2019-03-19T00:58:03.615Z,9.83
2019-03-19T01:00:30.063Z,9.30
2019-03-19T01:02:56.431Z,9.20
2019-03-19T01:05:23.046Z,8.97
2019-03-19T01:07:49.427Z,9.70
2019-03-19T01:10:17.351Z,9.53
2019-03-19T01:12:44.253Z,10.67
2019-03-19T01:15:11.213Z,11.00
2019-03-19T01:17:37.786Z,11.47
2019-03-19T01:20:05.833Z,10.00
2019-03-19T01:22:32.298Z,11.63
2019-03-19T01:24:58.842Z,10.57
2019-03-19T01:27:25.215Z,10.83
2019-03-19T01:29:51.667Z,10.77
2019-03-19T01:32:18.140Z,9.60
2019-03-19T01:34:44.591Z,11.10
2019-03-19T01:37:10.979Z,11.70
2019-03-19T01:39:37.524Z,10.53
2019-03-19T01:42:03.890Z,10.33
2019-03-19T01:44:30.444Z,11.00
2019-03-19T01:46:56.935Z,9.63
2019-03-19T01:49:23.371Z,11.20
2019-03-19T01:51:49.726Z,10.37
2019-03-19T01:54:16.127Z,11.73
2019-03-19T01:56:42.719Z,11.10
2019-03-19T01:59:09.293Z,11.27
2019-03-19T02:01:35.631Z,11.10
2019-03-19T02:04:02.233Z,11.10
2019-03-19T02:06:28.832Z,12.70
2019-03-19T02:08:55.295Z,14.00
2019-03-19T02:11:21.754Z,12.40
2019-03-19T02:13:48.215Z,13.00
2019-03-19T02:16:14.761Z,12.73
2019-03-19T02:18:41.137Z,12.87
2019-03-19T02:21:07.593Z,12.40
2019-03-19T02:23:33.973Z,12.13
2019-03-19T02:26:00.324Z,12.47
2019-03-19T02:28:26.720Z,12.23
2019-03-19T02:30:53.111Z,11.67
2019-03-19T02:33:19.567Z,12.93
2019-03-19T02:35:46.311Z,12.70
2019-03-19T02:38:12.801Z,13.80
2019-03-19T02:40:39.247Z,12.50
2019-03-19T02:43:05.802Z,12.30
2019-03-19T02:45:32.226Z,12.20
2019-03-19T02:47:58.673Z,12.10
2019-03-19T02:50:25.045Z,11.80
2019-03-19T02:52:51.417Z,13.53
2019-03-19T02:55:17.876Z,14.50
2019-03-19T02:57:44.387Z,14.73
2019-03-19T03:00:11.833Z,14.47
2019-03-19T03:02:38.294Z,14.20
2019-03-19T03:05:06.808Z,14.50
2019-03-19T03:07:33.155Z,15.13
2019-03-19T03:09:59.537Z,15.97
2019-03-19T03:12:26.014Z,14.23
2019-03-19T03:14:52.414Z,16.43
2019-03-19T03:17:18.976Z,15.87
2019-03-19T03:19:45.453Z,15.00
2019-03-19T03:22:11.913Z,16.50
2019-03-19T03:24:38.389Z,16.50
2019-03-19T03:27:04.842Z,15.77
2019-03-19T03:29:31.217Z,13.63
2019-03-19T03:31:57.728Z,13.73
2019-03-19T03:34:24.089Z,13.93
2019-03-19T03:36:50.659Z,13.10
2019-03-19T03:39:17.149Z,13.47
2019-03-19T03:41:43.533Z,13.50
2019-03-19T03:44:09.989Z,13.73
2019-03-19T03:46:36.469Z,13.60
2019-03-19T03:49:03.125Z,13.20
2019-03-19T03:51:29.499Z,13.40
2019-03-19T03:53:55.938Z,13.50
2019-03-19T03:56:22.421Z,13.47
2019-03-19T03:58:59.816Z,13.47
2019-03-19T04:01:17.537Z,12.30
2019-03-19T04:03:43.985Z,13.50
2019-03-19T04:06:10.379Z,12.07
2019-03-19T04:08:36.839Z,11.70
2019-03-19T04:11:03.482Z,13.17
2019-03-19T04:13:29.857Z,12.23
2019-03-19T04:15:56.420Z,12.50
2019-03-19T04:18:22.777Z,12.80
2019-03-19T04:20:49.355Z,14.13
2019-03-19T04:23:15.740Z,12.97
2019-03-19T04:25:42.227Z,14.13
2019-03-19T04:28:08.686Z,13.60
2019-03-19T04:30:35.240Z,12.87
2019-03-19T04:33:01.708Z,13.40
2019-03-19T04:35:28.304Z,13.07
2019-03-19T04:37:54.776Z,13.77
2019-03-19T04:40:21.324Z,14.20
2019-03-19T04:42:47.701Z,13.83
2019-03-19T04:45:14.664Z,15.27
2019-03-19T04:47:41.230Z,15.97
2019-03-19T04:50:09.484Z,14.97
2019-03-19T04:52:35.868Z,15.03
2019-03-19T04:55:03.528Z,13.90
2019-03-19T04:57:29.919Z,15.17
2019-03-19T04:59:58.896Z,13.67
2019-03-19T05:02:24.751Z,13.20
2019-03-19T05:04:51.237Z,15.27
2019-03-19T05:07:17.622Z,14.70
2019-03-19T05:09:44.114Z,13.97
2019-03-19T05:12:10.669Z,14.30
2019-03-19T05:14:37.011Z,15.40
2019-03-19T05:17:03.483Z,13.20
2019-03-19T05:19:29.837Z,15.13
2019-03-19T05:21:56.393Z,13.30
2019-03-19T05:24:22.868Z,13.70
2019-03-19T05:26:49.340Z,14.00
2019-03-19T05:29:15.925Z,13.93
2019-03-19T05:31:42.275Z,14.50
2019-03-19T05:34:08.761Z,14.47
2019-03-19T05:36:35.210Z,13.77
2019-03-19T05:39:01.708Z,13.93
2019-03-19T05:41:28.060Z,14.27
2019-03-19T05:43:54.452Z,15.80
2019-03-19T05:46:20.810Z,16.87
2019-03-19T05:48:47.204Z,16.93
2019-03-19T05:51:13.761Z,17.60
2019-03-19T05:53:40.327Z,17.30
2019-03-19T05:56:06.766Z,18.87
2019-03-19T05:58:34.084Z,18.53
2019-03-19T06:01:00.527Z,18.93
2019-03-19T06:03:26.996Z,17.47
2019-03-19T06:05:53.385Z,17.23
2019-03-19T06:08:19.951Z,16.67
2019-03-19T06:10:46.401Z,18.13
2019-03-19T06:13:12.864Z,17.50
2019-03-19T06:15:39.331Z,17.03
2019-03-19T06:18:05.800Z,15.07
2019-03-19T06:20:32.248Z,15.20
2019-03-19T06:22:58.735Z,16.30
2019-03-19T06:25:25.215Z,16.70
2019-03-19T06:27:59.953Z,15.10
2019-03-19T06:30:20.520Z,16.30
2019-03-19T06:32:46.971Z,16.30
2019-03-19T06:35:13.957Z,15.70
2019-03-19T06:37:40.430Z,16.27
2019-03-19T06:40:08.800Z,15.30
2019-03-19T06:42:35.159Z,16.30
2019-03-19T06:45:01.624Z,17.03
2019-03-19T06:47:28.100Z,17.30
2019-03-19T06:49:54.437Z,15.60
2019-03-19T06:52:20.889Z,16.47
2019-03-19T06:54:47.264Z,15.73
2019-03-19T06:57:13.719Z,18.07
2019-03-19T06:59:41.018Z,16.70
2019-03-19T07:02:07.598Z,16.23
2019-03-19T07:04:34.120Z,16.83
2019-03-19T07:07:00.675Z,16.63
2019-03-19T07:09:27.123Z,16.07
2019-03-19T07:11:53.500Z,15.80
2019-03-19T07:14:19.956Z,15.30
2019-03-19T07:16:46.564Z,15.33
2019-03-19T07:19:12.919Z,15.83
2019-03-19T07:21:39.380Z,15.63
2019-03-19T07:24:05.770Z,14.53
2019-03-19T07:26:32.229Z,16.13
2019-03-19T07:28:58.667Z,15.20
2019-03-19T07:31:30.814Z,14.83
2019-03-19T07:33:53.371Z,15.37
2019-03-19T07:36:19.735Z,16.27
2019-03-19T07:38:46.085Z,16.37
2019-03-19T07:41:12.464Z,16.00
2019-03-19T07:43:38.853Z,15.63
2019-03-19T07:46:05.299Z,15.77
2019-03-19T07:48:31.856Z,17.03
2019-03-19T07:50:58.220Z,15.63
2019-03-19T07:53:24.781Z,15.67
2019-03-19T07:55:53.389Z,15.63
2019-03-19T07:58:19.623Z,15.77
2019-03-19T08:00:45.979Z,15.27
2019-03-19T08:03:16.427Z,13.87
2019-03-19T08:05:40.611Z,13.83
2019-03-19T08:08:07.007Z,14.43
2019-03-19T08:10:33.551Z,13.83
2019-03-19T08:12:59.933Z,14.70
2019-03-19T08:15:26.300Z,14.43
2019-03-19T08:17:52.676Z,13.37
2019-03-19T08:20:19.109Z,13.07
2019-03-19T08:22:45.578Z,14.87
2019-03-19T08:25:12.365Z,13.10
2019-03-19T08:27:38.822Z,12.87
2019-03-19T08:30:07.069Z,14.23
2019-03-19T08:32:33.546Z,11.63
2019-03-19T08:35:00.001Z,8.60
2019-03-19T08:37:26.475Z,5.60
2019-03-19T08:39:53.026Z,4.20
2019-03-19T08:42:19.421Z,4.53
2019-03-19T08:44:45.869Z,6.83
2019-03-19T08:47:12.338Z,4.67
2019-03-19T08:49:38.799Z,4.13
2019-03-19T08:52:05.367Z,4.40
2019-03-19T08:54:32.591Z,5.50
2019-03-19T08:56:59.079Z,3.87
2019-03-19T08:59:25.535Z,4.57
2019-03-19T09:01:52.017Z,3.33
2019-03-19T09:04:18.460Z,3.60
2019-03-19T09:06:44.833Z,3.33
2019-03-19T09:09:11.307Z,3.70
2019-03-19T09:11:37.695Z,3.07
2019-03-19T09:14:04.173Z,3.43
2019-03-19T09:16:30.623Z,3.80
2019-03-19T09:18:57.083Z,4.23
2019-03-19T09:21:23.438Z,3.47
2019-03-19T09:23:49.906Z,4.37
2019-03-19T09:26:16.455Z,3.67
2019-03-19T09:28:42.839Z,4.30
2019-03-19T09:31:09.213Z,3.70
2019-03-19T09:33:35.592Z,3.03
2019-03-19T09:36:01.945Z,2.60
2019-03-19T09:38:28.431Z,2.83
2019-03-19T09:40:56.691Z,3.53
2019-03-19T09:43:23.059Z,3.30
2019-03-19T09:45:49.435Z,4.03
2019-03-19T09:48:15.902Z,3.30
2019-03-19T09:50:42.358Z,3.57
2019-03-19T09:53:08.840Z,2.80
2019-03-19T09:55:35.287Z,2.70
2019-03-19T09:58:01.729Z,3.33
2019-03-19T10:00:28.296Z,3.47
2019-03-19T10:02:54.743Z,1.80
2019-03-19T10:05:21.159Z,1.70
2019-03-19T10:07:47.715Z,1.70
2019-03-19T10:10:16.100Z,1.73
2019-03-19T10:12:42.555Z,1.97
2019-03-19T10:15:09.250Z,1.70
2019-03-19T10:17:35.804Z,2.00
2019-03-19T10:20:03.883Z,2.50
2019-03-19T10:22:30.439Z,1.92
2019-03-19T10:24:56.918Z,2.10
2019-03-19T10:27:23.269Z,1.80
2019-03-19T10:29:49.635Z,1.70
2019-03-19T10:32:16.027Z,1.97
2019-03-19T10:34:42.383Z,2.60
2019-03-19T10:37:08.732Z,2.07
2019-03-19T10:39:35.210Z,2.60
2019-03-19T10:42:01.771Z,1.97
2019-03-19T10:44:28.159Z,1.90
2019-03-19T10:46:54.595Z,1.70
2019-03-19T10:49:21.072Z,1.80
2019-03-19T10:51:47.542Z,1.60
2019-03-19T10:54:13.900Z,1.83
2019-03-19T10:56:40.272Z,1.93
2019-03-19T10:59:06.743Z,1.87
2019-03-19T11:01:33.127Z,2.03
2019-03-19T11:03:59.704Z,2.10
2019-03-19T11:06:26.069Z,2.10
2019-03-19T11:08:52.419Z,2.13
2019-03-19T11:11:18.824Z,2.10
2019-03-19T11:13:45.439Z,1.87
2019-03-19T11:16:12.015Z,2.07
2019-03-19T11:18:38.559Z,1.80
2019-03-19T11:21:08.361Z,2.07
2019-03-19T11:23:34.713Z,1.90
2019-03-19T11:26:01.201Z,2.23
2019-03-19T11:28:27.556Z,2.10
2019-03-19T11:30:54.128Z,2.10
2019-03-19T11:33:20.478Z,1.77
2019-03-19T11:35:47.050Z,2.23
2019-03-19T11:38:13.514Z,2.10
2019-03-19T11:40:39.995Z,1.50
2019-03-19T11:43:06.444Z,2.20
2019-03-19T11:45:33.032Z,1.90
2019-03-19T11:47:59.464Z,2.15
2019-03-19T11:50:26.651Z,2.65
2019-03-19T11:52:53.199Z,2.12
2019-03-19T11:55:19.876Z,2.33
2019-03-19T11:57:46.332Z,1.83
2019-03-19T12:00:14.727Z,1.93
2019-03-19T12:02:41.183Z,2.02
2019-03-19T12:05:07.815Z,2.15
2019-03-19T12:07:34.326Z,2.10
2019-03-19T12:10:00.776Z,2.05
2019-03-19T12:12:27.242Z,2.08
2019-03-19T12:14:53.699Z,1.87
2019-03-19T12:17:20.179Z,2.08
2019-03-19T12:19:46.661Z,1.80
2019-03-19T12:22:13.131Z,1.80
2019-03-19T12:24:39.487Z,2.00
2019-03-19T12:27:05.975Z,2.27
2019-03-19T12:29:32.430Z,1.92
2019-03-19T12:31:58.821Z,2.00
2019-03-19T12:34:25.388Z,1.87
2019-03-19T12:36:52.043Z,1.80
2019-03-19T12:39:18.412Z,1.73
2019-03-19T12:41:44.875Z,1.70
2019-03-19T12:44:11.234Z,2.50
2019-03-19T12:46:37.700Z,2.10
2019-03-19T12:49:04.156Z,2.30
2019-03-19T12:51:30.585Z,2.63
2019-03-19T12:53:59.552Z,2.13
2019-03-19T12:56:26.131Z,2.07
2019-03-19T12:58:52.488Z,2.03
2019-03-19T13:01:18.992Z,2.20
2019-03-19T13:03:45.528Z,1.83
2019-03-19T13:06:12.030Z,2.45
2019-03-19T13:08:38.667Z,1.95
2019-03-19T13:11:05.174Z,1.70
2019-03-19T13:13:31.649Z,2.22
2019-03-19T13:15:58.115Z,2.00
2019-03-19T13:18:24.496Z,2.37
2019-03-19T13:20:53.401Z,2.02
2019-03-19T13:23:19.450Z,2.00
2019-03-19T13:25:45.919Z,1.92
2019-03-19T13:28:12.395Z,1.90
2019-03-19T13:30:44.859Z,2.10
2019-03-19T13:33:07.340Z,2.42
2019-03-19T13:35:33.788Z,1.80
2019-03-19T13:38:00.157Z,2.10
2019-03-19T13:40:26.611Z,1.98
2019-03-19T13:42:52.991Z,2.45
2019-03-19T13:45:19.844Z,2.12
2019-03-19T13:47:46.212Z,1.90
2019-03-19T13:50:14.368Z,2.37
2019-03-19T13:52:40.748Z,1.37
2019-03-19T13:55:08.608Z,1.47
2019-03-19T13:57:34.976Z,1.60
2019-03-19T14:00:01.328Z,1.90
2019-03-19T14:02:27.778Z,2.22
2019-03-19T14:04:54.162Z,1.80
2019-03-19T14:07:20.515Z,2.20
2019-03-19T14:09:46.901Z,1.85
2019-03-19T14:12:13.250Z,1.35
2019-03-19T14:14:39.748Z,1.72
2019-03-19T14:17:06.747Z,1.82
2019-03-19T14:19:33.188Z,2.10
2019-03-19T14:22:01.439Z,1.95
2019-03-19T14:24:27.821Z,1.50
2019-03-19T14:26:54.384Z,1.30
2019-03-19T14:29:20.749Z,1.37
2019-03-19T14:31:47.210Z,1.45
2019-03-19T14:34:13.580Z,1.70
2019-03-19T14:36:40.083Z,1.37
2019-03-19T14:39:06.732Z,1.43
2019-03-19T14:41:33.116Z,1.93
2019-03-19T14:43:59.592Z,1.73
2019-03-19T14:46:25.943Z,1.40
2019-03-19T14:48:52.312Z,1.40
2019-03-19T14:51:18.767Z,1.47
2019-03-19T14:53:45.240Z,1.45
2019-03-19T14:56:11.802Z,1.65
2019-03-19T14:58:38.272Z,1.60
2019-03-19T15:01:04.736Z,2.00
2019-03-19T15:03:31.108Z,1.45
2019-03-19T15:05:57.608Z,1.40
2019-03-19T15:08:25.512Z,1.30
2019-03-19T15:10:52.128Z,2.75
2019-03-19T15:13:18.610Z,1.67
2019-03-19T15:15:45.056Z,1.62
2019-03-19T15:18:11.641Z,1.60
2019-03-19T15:20:38.192Z,1.22
2019-03-19T15:23:04.659Z,1.20
2019-03-19T15:25:31.122Z,1.30
2019-03-19T15:27:57.513Z,1.00
2019-03-19T15:30:24.083Z,1.27
2019-03-19T15:32:50.544Z,1.65
2019-03-19T15:35:17.008Z,1.17
2019-03-19T15:37:45.368Z,1.50
2019-03-19T15:40:12.640Z,1.10
2019-03-19T15:42:39.099Z,1.00
2019-03-19T15:45:09.463Z,1.40
2019-03-19T15:47:35.920Z,1.20
2019-03-19T15:50:03.888Z,1.30
2019-03-19T15:52:30.344Z,1.30
2019-03-19T15:54:56.927Z,1.00
2019-03-19T15:57:23.379Z,1.20
2019-03-19T15:59:49.991Z,1.37
2019-03-19T16:02:16.381Z,1.07
2019-03-19T16:04:43.035Z,1.70
2019-03-19T16:07:09.561Z,1.32
2019-03-19T16:09:35.921Z,1.25
2019-03-19T16:12:02.591Z,1.62
2019-03-19T16:14:28.953Z,1.32
2019-03-19T16:16:55.324Z,1.67
2019-03-19T16:19:21.714Z,1.02
2019-03-19T16:21:48.212Z,1.20
2019-03-19T16:24:14.556Z,1.40
2019-03-19T16:26:41.029Z,1.67
2019-03-19T16:29:07.484Z,1.75
2019-03-19T16:31:33.867Z,1.40
2019-03-19T16:34:00.232Z,1.40
2019-03-19T16:36:26.611Z,1.20
2019-03-19T16:38:53.067Z,1.40
2019-03-19T16:41:19.431Z,1.10
2019-03-19T16:43:45.888Z,1.13
2019-03-19T16:46:12.252Z,1.30
2019-03-19T16:48:38.637Z,1.07
2019-03-19T16:51:05.097Z,1.00
2019-03-19T16:53:31.443Z,1.20
2019-03-19T16:55:57.955Z,1.37
2019-03-19T16:58:24.299Z,1.30
2019-03-19T17:00:50.748Z,1.60
2019-03-19T17:03:17.128Z,1.77
2019-03-19T17:05:43.516Z,1.20
2019-03-19T17:08:10.030Z,1.30
2019-03-19T17:10:36.479Z,1.10
2019-03-19T17:13:03.260Z,1.40
2019-03-19T17:15:29.719Z,1.20
2019-03-19T17:17:56.179Z,1.07
2019-03-19T17:20:22.650Z,1.20
2019-03-19T17:22:49.056Z,1.00
2019-03-19T17:25:17.203Z,1.33
2019-03-19T17:27:43.863Z,1.33
2019-03-19T17:30:12.299Z,1.50
2019-03-19T17:32:38.698Z,1.60
2019-03-19T17:35:05.226Z,2.07
2019-03-19T17:37:31.638Z,2.90
2019-03-19T17:39:58.106Z,1.33
2019-03-19T17:42:24.701Z,1.67
2019-03-19T17:44:51.215Z,2.40
2019-03-19T17:47:17.735Z,3.33
2019-03-19T17:49:44.189Z,1.93
2019-03-19T17:52:10.571Z,1.40
2019-03-19T17:54:37.028Z,1.77
2019-03-19T17:57:03.417Z,1.47
2019-03-19T17:59:31.678Z,1.77
2019-03-19T18:01:58.102Z,1.57
2019-03-19T18:04:24.587Z,1.70
2019-03-19T18:06:51.095Z,1.77
2019-03-19T18:09:17.570Z,1.93
2019-03-19T18:11:44.119Z,1.20
2019-03-19T18:14:10.632Z,1.90
2019-03-19T18:16:37.066Z,2.20
2019-03-19T18:19:03.450Z,2.80
2019-03-19T18:21:29.878Z,2.70
2019-03-19T18:23:56.410Z,2.67
2019-03-19T18:26:22.765Z,2.47
2019-03-19T18:28:49.380Z,2.73
2019-03-19T18:31:15.761Z,1.70
2019-03-19T18:33:42.221Z,1.90
2019-03-19T18:36:08.675Z,1.63
2019-03-19T18:38:35.079Z,1.57
2019-03-19T18:41:01.540Z,1.90
2019-03-19T18:43:28.196Z,2.10
2019-03-19T18:45:57.009Z,2.30
2019-03-19T18:48:22.963Z,2.17
2019-03-19T18:50:49.414Z,2.40
2019-03-19T18:53:15.771Z,2.57
2019-03-19T18:55:42.289Z,3.87
2019-03-19T18:58:08.627Z,4.00
2019-03-19T19:00:35.115Z,4.97
2019-03-19T19:03:01.524Z,3.27
2019-03-19T19:05:27.883Z,3.70
2019-03-19T19:07:54.321Z,2.97
2019-03-19T19:10:21.595Z,3.87
2019-03-19T19:12:48.431Z,2.60
2019-03-19T19:15:16.400Z,1.73
2019-03-19T19:17:42.843Z,2.17
2019-03-19T19:20:12.791Z,2.00
2019-03-19T19:22:39.350Z,2.20
2019-03-19T19:25:07.558Z,2.30
2019-03-19T19:27:33.920Z,2.73
2019-03-19T19:30:00.349Z,3.27
2019-03-19T19:32:26.856Z,2.67
2019-03-19T19:34:55.920Z,2.10
2019-03-19T19:37:22.317Z,3.07
2019-03-19T19:39:48.902Z,3.17
2019-03-19T19:42:15.255Z,3.73
2019-03-19T19:44:41.644Z,4.10
2019-03-19T19:47:08.122Z,4.00
2019-03-19T19:49:34.482Z,4.50
2019-03-19T19:52:00.955Z,4.63
2019-03-19T19:54:27.502Z,5.20
2019-03-19T19:56:54.154Z,5.30
2019-03-19T19:59:20.607Z,5.80
2019-03-19T20:01:47.068Z,4.10
2019-03-19T20:04:13.534Z,3.73
2019-03-19T20:06:39.912Z,3.00
2019-03-19T20:09:06.682Z,3.10
2019-03-19T20:11:33.451Z,3.10
2019-03-19T20:14:00.117Z,2.60
2019-03-19T20:16:26.571Z,3.43
2019-03-19T20:18:53.041Z,3.80
2019-03-19T20:21:19.512Z,4.80
2019-03-19T20:23:46.096Z,5.13
2019-03-19T20:26:12.506Z,4.77
2019-03-19T20:28:38.890Z,4.43
2019-03-19T20:31:05.276Z,5.00
2019-03-19T20:33:31.738Z,5.17
2019-03-19T20:35:58.453Z,3.97
2019-03-19T20:38:24.923Z,4.20
2019-03-19T20:40:51.416Z,4.53
2019-03-19T20:43:17.927Z,5.77
2019-03-19T20:45:44.329Z,5.00
2019-03-19T20:48:11.596Z,6.50
2019-03-19T20:50:38.835Z,5.37
2019-03-19T20:53:05.256Z,6.43
2019-03-19T20:55:31.724Z,8.80
2019-03-19T20:57:58.309Z,9.00
2019-03-19T21:00:24.651Z,6.87
2019-03-19T21:02:51.223Z,5.47
2019-03-19T21:05:17.590Z,7.93
2019-03-19T21:07:44.123Z,6.23
2019-03-19T21:10:12.010Z,5.17
2019-03-19T21:12:38.582Z,4.90
2019-03-19T21:15:06.648Z,4.63
2019-03-19T21:17:33.144Z,5.00
2019-03-19T21:19:59.713Z,5.00
2019-03-19T21:22:26.107Z,4.60
2019-03-19T21:24:52.467Z,5.23
2019-03-19T21:27:18.936Z,4.40
2019-03-19T21:29:45.312Z,4.37
2019-03-19T21:32:11.771Z,5.07
2019-03-19T21:34:38.171Z,4.70
2019-03-19T21:37:04.631Z,5.40
2019-03-19T21:39:31.099Z,4.20
2019-03-19T21:41:57.556Z,4.90
2019-03-19T21:44:24.051Z,6.90
2019-03-19T21:46:50.590Z,6.07
2019-03-19T21:49:17.160Z,9.30
2019-03-19T21:51:43.544Z,6.60
2019-03-19T21:54:10.019Z,5.90
2019-03-19T21:56:36.472Z,5.60
2019-03-19T21:59:03.066Z,6.10
2019-03-19T22:01:29.503Z,5.20
2019-03-19T22:04:03.055Z,5.07
2019-03-19T22:06:24.384Z,4.63
2019-03-19T22:08:50.783Z,5.30
2019-03-19T22:11:17.249Z,5.43
2019-03-19T22:13:43.714Z,6.20
2019-03-19T22:16:10.066Z,5.33
2019-03-19T22:18:36.539Z,6.17
2019-03-19T22:21:02.998Z,5.50
2019-03-19T22:23:29.458Z,4.67
2019-03-19T22:25:55.908Z,4.90
2019-03-19T22:28:22.282Z,5.10
2019-03-19T22:30:48.751Z,5.17
2019-03-19T22:33:15.137Z,5.40
2019-03-19T22:35:41.613Z,4.80
2019-03-19T22:38:08.067Z,6.20
2019-03-19T22:40:34.551Z,4.77
2019-03-19T22:43:01.002Z,4.87
2019-03-19T22:45:27.385Z,4.93
2019-03-19T22:47:53.850Z,5.00
2019-03-19T22:50:20.315Z,4.10
2019-03-19T22:52:46.868Z,5.27
2019-03-19T22:55:13.739Z,5.40
2019-03-19T22:57:40.408Z,4.83
2019-03-19T23:00:08.489Z,5.20
2019-03-19T23:02:34.874Z,4.80
2019-03-19T23:05:01.348Z,5.50
2019-03-19T23:07:27.831Z,5.20
2019-03-19T23:09:54.324Z,4.90
2019-03-19T23:12:20.769Z,5.43
2019-03-19T23:14:47.161Z,4.93
2019-03-19T23:17:13.622Z,4.80
2019-03-19T23:19:40.098Z,4.63
2019-03-19T23:22:06.556Z,4.70
2019-03-19T23:24:33.041Z,5.30
2019-03-19T23:26:59.592Z,4.90
2019-03-19T23:29:26.068Z,5.37
2019-03-19T23:31:52.420Z,4.70
2019-03-19T23:34:18.815Z,4.73
2019-03-19T23:36:45.294Z,4.80
2019-03-19T23:39:11.827Z,4.93
2019-03-19T23:41:38.310Z,5.33
2019-03-19T23:44:04.808Z,5.70
2019-03-19T23:46:31.294Z,6.17
2019-03-19T23:48:57.761Z,5.50
2019-03-19T23:51:24.128Z,5.80
2019-03-19T23:53:50.687Z,5.03
2019-03-19T23:56:17.187Z,5.97
2019-03-19T23:58:43.631Z,5.27
